Time;durP1;ratioP1;P1;durP2;ratioP2;P2;SDS_P1;SDS_P2;PMS_P1;PMS_P2;Temp;Humidity;BMP_temperature;BMP_pressure;BME280_temperature;BME280_humidity;BME280_pressure;Samples;Min_cycle;Max_cycle;Signal;HPM_P1;HPM_P2
2021/11/17 02:27:25;;;;;;;33.60;19.85;;;;;;;4.06;96.28;99902.43;1645620;85;20993;-68
2021/11/17 02:30:18;;;;;;;33.13;20.55;;;;;;;4.00;96.13;99902.10;1644014;85;21120;-69
2021/11/17 02:33:13;;;;;;;38.08;19.25;;;;;;;3.98;96.24;99909.50;1677821;81;21040;-67
2021/11/17 02:36:09;;;;;;;38.55;19.67;;;;;;;3.97;96.26;99900.02;1697341;82;21111;-69
2021/11/17 02:39:32;;;;;;;31.87;18.82;;;;;;;4.02;96.53;99898.21;1699626;81;21075;-68
2021/11/17 02:42:28;;;;;;;33.67;18.87;;;;;;;4.05;96.50;99895.57;1697372;81;21083;-67
2021/11/17 02:45:19;;;;;;;31.95;18.65;;;;;;;4.08;96.50;99889.50;1697656;81;21529;-68
2021/11/17 02:47:57;;;;;;;33.73;18.90;;;;;;;4.08;96.47;99889.50;1692058;81;21083;-69
2021/11/17 02:50:47;;;;;;;30.45;18.40;;;;;;;4.10;96.54;99886.02;1697145;82;21077;-69
2021/11/17 02:53:50;;;;;;;35.03;19.07;;;;;;;4.10;96.39;99883.42;1696209;81;21219;-69
2021/11/17 02:56:21;;;;;;;32.10;18.60;;;;;;;4.08;96.21;99883.88;1693790;81;20989;-68
2021/11/17 02:59:10;;;;;;;41.37;19.90;;;;;;;4.09;96.38;99876.56;1693379;81;21420;-68
2021/11/17 03:02:04;;;;;;;37.53;19.90;;;;;;;4.09;96.23;99876.98;1698074;81;21045;-68
2021/11/17 03:04:46;;;;;;;31.00;19.10;;;;;;;4.09;96.22;99875.27;1677525;82;21163;-69
2021/11/17 03:07:36;;;;;;;32.38;19.42;;;;;;;4.07;96.16;99872.30;1692840;81;22222;-68
2021/11/17 03:10:20;;;;;;;35.00;19.82;;;;;;;4.07;96.25;99871.01;1701067;81;21346;-68
2021/11/17 03:12:54;;;;;;;34.38;20.12;;;;;;;4.08;96.26;99874.84;1701219;81;21068;-68
2021/11/17 03:15:55;;;;;;;33.15;18.40;;;;;;;4.04;96.16;99878.37;1612133;87;21146;-68
2021/11/17 03:18:42;;;;;;;31.23;18.80;;;;;;;4.09;96.41;99876.56;1610513;87;21115;-69
2021/11/17 03:21:29;;;;;;;31.45;18.45;;;;;;;4.08;96.38;99870.97;1614236;87;21942;-67
2021/11/17 03:24:33;;;;;;;35.13;18.85;;;;;;;4.13;96.39;99864.43;1608681;87;21144;-69
2021/11/17 03:27:21;;;;;;;34.20;19.90;;;;;;;4.10;96.22;99860.17;1609945;87;21064;-68
2021/11/17 03:30:10;;;;;;;35.43;19.65;;;;;;;4.09;96.24;99853.31;1612449;87;21705;-69
2021/11/17 03:33:04;;;;;;;32.58;19.07;;;;;;;4.09;96.27;99848.55;1608730;87;21193;-69
2021/11/17 03:35:42;;;;;;;32.90;18.95;;;;;;;4.07;96.19;99847.31;1610078;87;21192;-67
2021/11/17 03:38:29;;;;;;;30.20;19.65;;;;;;;4.08;96.25;99841.25;1606489;87;21638;-68
2021/11/17 03:41:21;;;;;;;30.88;17.95;;;;;;;4.08;96.32;99843.83;1611056;87;21187;-68
2021/11/17 03:44:22;;;;;;;37.58;21.15;;;;;;;4.10;96.33;99852.41;1606889;87;21061;-68
2021/11/17 03:47:40;;;;;;;40.35;19.80;;;;;;;4.09;96.22;99852.43;1611989;87;21202;-67
2021/11/17 03:50:27;;;;;;;31.95;19.07;;;;;;;4.09;96.22;99846.84;1613161;87;21201;-68
2021/11/17 03:53:10;;;;;;;30.20;18.75;;;;;;;4.10;96.36;99841.23;1655179;82;21210;-68
2021/11/17 03:56:15;;;;;;;40.33;19.75;;;;;;;4.13;96.39;99838.14;1695383;82;20935;-68
2021/11/17 03:59:15;;;;;;;36.28;20.75;;;;;;;4.13;96.49;99832.98;1693035;82;21601;-68
2021/11/17 04:02:08;;;;;;;35.58;19.67;;;;;;;4.12;96.26;99831.28;1629587;85;21475;-68
2021/11/17 04:05:04;;;;;;;35.85;20.77;;;;;;;4.12;96.37;99831.73;1630425;86;21919;-68
2021/11/17 04:07:39;;;;;;;39.58;20.40;;;;;;;4.11;96.42;99832.59;1630550;85;21186;-69
2021/11/17 04:10:44;;;;;;;41.90;20.92;;;;;;;4.10;96.43;99827.87;1629401;85;21183;-68
2021/11/17 04:13:56;;;;;;;32.83;19.23;;;;;;;4.09;96.49;99824.88;1632452;85;21089;-66
2021/11/17 04:16:49;;;;;;;31.93;19.32;;;;;;;4.13;96.54;99818.77;1629945;85;21120;-68
2021/11/17 04:19:24;;;;;;;40.03;22.07;;;;;;;4.11;96.38;99815.34;1627778;86;21279;-68
2021/11/17 04:22:08;;;;;;;34.58;20.00;;;;;;;4.12;96.46;99814.48;1628155;85;21182;-67
2021/11/17 04:25:10;;;;;;;36.35;19.48;;;;;;;4.11;96.34;99811.47;1628011;86;21113;-68
2021/11/17 04:28:00;;;;;;;36.73;21.55;;;;;;;4.11;96.34;99811.47;1627909;85;21107;-68
2021/11/17 04:31:25;;;;;;;37.60;19.80;;;;;;;4.11;96.45;99810.17;1627549;85;21112;-70
2021/11/17 04:34:15;;;;;;;36.90;20.37;;;;;;;4.12;96.41;99804.15;1628108;85;21604;-68
2021/11/17 04:37:05;;;;;;;35.83;19.80;;;;;;;4.10;96.34;99798.16;1705693;82;20999;-67
2021/11/17 04:39:58;;;;;;;32.60;18.62;;;;;;;4.10;96.37;99805.91;1644718;84;21054;-68
2021/11/17 04:43:06;;;;;;;33.35;19.67;;;;;;;4.09;96.26;99802.05;1672242;83;21152;-67
2021/11/17 04:45:56;;;;;;;33.30;18.90;;;;;;;4.03;96.17;99796.55;1667660;83;21092;-69
2021/11/17 04:48:59;;;;;;;35.58;19.17;;;;;;;4.04;96.26;99793.11;1698333;83;22135;-67
2021/11/17 04:51:34;;;;;;;31.35;18.25;;;;;;;4.04;96.32;99786.20;1663819;83;21085;-68
2021/11/17 04:54:28;;;;;;;27.85;17.67;;;;;;;4.05;96.22;99783.17;1693726;83;21005;-68
2021/11/17 04:57:25;;;;;;;30.37;18.42;;;;;;;4.07;96.46;99789.17;1669689;83;21068;-68
2021/11/17 05:00:12;;;;;;;31.95;18.23;;;;;;;4.11;96.43;99780.46;1666450;83;21022;-67
2021/11/17 05:03:18;;;;;;;37.15;18.87;;;;;;;4.13;96.38;99786.46;1706131;83;21167;-68
2021/11/17 05:05:56;;;;;;;30.92;18.98;;;;;;;4.13;96.25;99785.16;1697223;83;21057;-68
2021/11/17 05:08:49;;;;;;;37.20;20.12;;;;;;;4.14;96.34;99786.86;1704789;83;21076;-68
2021/11/17 05:11:48;;;;;;;35.17;18.92;;;;;;;4.17;96.41;99786.83;1700009;83;21012;-69
2021/11/17 05:14:43;;;;;;;32.03;19.10;;;;;;;4.19;96.42;99783.75;1664229;84;21093;-69
2021/11/17 05:17:52;;;;;;;34.23;19.57;;;;;;;4.17;96.24;99786.83;1701969;82;21153;-69
2021/11/17 05:20:46;;;;;;;31.85;19.07;;;;;;;4.15;96.17;99779.98;1684594;82;21081;-69
2021/11/17 05:23:29;;;;;;;35.65;20.60;;;;;;;4.14;96.11;99781.69;1702544;82;21057;-69
2021/11/17 05:26:19;;;;;;;33.73;20.08;;;;;;;4.14;96.22;99773.94;1706953;82;21014;-69
2021/11/17 05:29:26;;;;;;;33.95;19.57;;;;;;;4.15;96.21;99771.78;1703827;82;21027;-67
2021/11/17 05:32:27;;;;;;;31.15;18.35;;;;;;;4.14;96.14;99771.35;1705563;82;22130;-69
2021/11/17 05:35:02;;;;;;;29.25;18.05;;;;;;;4.12;96.18;99764.09;1709931;80;21683;-68
2021/11/17 05:37:40;;;;;;;33.28;19.50;;;;;;;4.13;96.13;99764.50;1674400;83;21086;-68
2021/11/17 05:40:20;;;;;;;31.30;19.07;;;;;;;4.12;96.03;99757.63;1726204;80;21465;-68
2021/11/17 05:43:01;;;;;;;33.42;19.37;;;;;;;4.13;96.17;99752.86;1717810;81;21099;-68
2021/11/17 05:45:39;;;;;;;32.70;19.30;;;;;;;4.17;96.17;99756.23;1725010;80;21096;-69
2021/11/17 05:48:43;;;;;;;33.08;19.80;;;;;;;4.16;96.08;99756.67;1678919;81;21025;-68
2021/11/17 05:51:28;;;;;;;32.65;20.72;;;;;;;4.17;96.11;99750.64;1722770;80;20993;-68
2021/11/17 05:54:16;;;;;;;32.38;20.72;;;;;;;4.17;96.00;99757.11;1674198;83;21016;-68
2021/11/17 05:57:02;;;;;;;35.65;22.93;;;;;;;4.17;96.07;99752.35;1671565;83;21053;-68
2021/11/17 05:59:52;;;;;;;39.38;23.15;;;;;;;4.17;96.16;99754.52;1679617;83;21128;-69
2021/11/17 06:02:42;;;;;;;40.35;24.20;;;;;;;4.19;96.10;99764.36;1723769;80;22286;-67
2021/11/17 06:05:08;;;;;;;34.30;21.82;;;;;;;4.21;96.14;99762.61;1720205;81;21063;-67
2021/11/17 06:07:34;;;;;;;45.52;22.75;;;;;;;4.28;96.32;99759.89;1718692;80;21562;-67
2021/11/17 06:10:15;;;;;;;37.05;22.07;;;;;;;4.30;96.23;99758.13;1723784;80;21111;-67
2021/11/17 06:12:42;;;;;;;37.63;21.25;;;;;;;4.31;96.12;99752.06;1721360;80;21173;-67
2021/11/17 06:15:13;;;;;;;36.25;22.20;;;;;;;4.33;96.14;99758.06;1664834;83;21491;-67
2021/11/17 06:17:40;;;;;;;35.50;21.65;;;;;;;4.32;95.91;99760.25;1617209;85;21599;-69
2021/11/17 06:20:09;;;;;;;;;;;;;;;4.29;95.81;99762.91;1727108;81;21571;-67
2021/11/17 06:22:45;;;;;;;40.78;22.73;;;;;;;4.23;95.79;99763.44;1721295;80;20486;-69
2021/11/17 06:25:33;;;;;;;42.62;23.57;;;;;;;4.23;96.01;99760.00;1723110;80;21955;-70
2021/11/17 06:28:04;;;;;;;43.05;24.65;;;;;;;4.21;95.97;99765.19;1643075;84;21024;-68
2021/11/17 06:30:39;;;;;;;40.30;23.40;;;;;;;4.20;96.00;99767.38;1646381;84;21036;-69
2021/11/17 06:33:08;;;;;;;46.75;26.25;;;;;;;4.20;96.00;99773.84;1649703;84;21161;-69
2021/11/17 06:35:39;;;;;;;42.45;25.20;;;;;;;4.23;96.18;99771.19;1642395;84;20980;-68
2021/11/17 06:38:08;;;;;;;47.23;26.68;;;;;;;4.23;95.99;99773.77;1645806;84;21141;-68
2021/11/17 06:40:39;;;;;;;46.85;26.23;;;;;;;4.21;95.93;99766.93;1644863;84;21778;-69
2021/11/17 06:43:08;;;;;;;48.02;27.50;;;;;;;4.20;95.95;99769.96;1603054;85;21084;-67
2021/11/17 06:45:46;;;;;;;52.43;28.10;;;;;;;4.19;95.99;99761.78;1601900;86;22256;-68
2021/11/17 06:48:14;;;;;;;52.60;28.73;;;;;;;4.19;95.98;99766.10;1601532;85;21047;-67
2021/11/17 06:50:45;;;;;;;51.25;29.87;;;;;;;4.21;96.17;99754.85;1598390;85;21598;-68
2021/11/17 06:53:13;;;;;;;59.98;29.45;;;;;;;4.24;96.18;99759.95;1601286;87;21081;-68
2021/11/17 06:55:39;;;;;;;;;;;;;;;4.24;96.06;99757.37;1627676;86;21602;-67
2021/11/17 06:58:13;;;;;;;59.18;33.42;;;;;;;4.23;95.97;99758.27;1626284;86;20104;-68
2021/11/17 07:00:44;;;;;;;76.57;48.55;;;;;;;4.22;95.97;99750.53;1622325;86;21616;-68
2021/11/17 07:03:12;;;;;;;61.55;35.65;;;;;;;4.23;96.03;99758.27;1596987;88;21801;-67
2021/11/17 07:05:39;;;;;;;;;;;;;;;4.25;96.08;99753.89;1603772;88;21016;-66
2021/11/17 07:08:06;;;;;;;64.82;40.95;;;;;;;4.24;96.03;99752.20;1648559;84;20111;-68
2021/11/17 07:10:38;;;;;;;57.33;34.63;;;;;;;4.24;96.02;99746.19;1646494;84;21028;-68
2021/11/17 07:13:07;;;;;;;66.45;42.93;;;;;;;4.24;96.13;99743.16;1640438;84;21893;-67
2021/11/17 07:15:36;;;;;;;75.15;44.60;;;;;;;4.27;96.17;99747.41;1640239;84;21894;-67
2021/11/17 07:18:06;;;;;;;65.30;37.00;;;;;;;4.30;96.21;99737.45;1641092;85;21624;-68
2021/11/17 07:20:33;;;;;;;68.37;38.02;;;;;;;4.31;96.22;99741.73;1642627;84;21024;-67
2021/11/17 07:23:01;;;;;;;60.38;34.45;;;;;;;4.30;96.08;99742.63;1646112;84;21080;-67
2021/11/17 07:25:28;;;;;;;60.63;32.88;;;;;;;4.33;96.18;99738.67;1644646;84;26936;-68
2021/11/17 07:27:59;;;;;;;59.38;33.00;;;;;;;4.33;96.16;99736.09;1645786;84;21110;-68
2021/11/17 07:30:33;;;;;;;71.37;38.13;;;;;;;4.36;96.14;99738.61;1645360;84;21529;-67
2021/11/17 07:33:04;;;;;;;65.87;35.80;;;;;;;4.39;96.25;99732.08;1643906;84;21201;-67
2021/11/17 07:35:35;;;;;;;66.57;36.28;;;;;;;4.41;96.18;99728.58;1646100;85;21547;-68
2021/11/17 07:38:04;;;;;;;57.60;34.83;;;;;;;4.44;96.21;99732.83;1588120;88;21167;-67
2021/11/17 07:40:36;;;;;;;65.65;36.55;;;;;;;4.48;96.24;99731.86;1586761;88;21757;-67
2021/11/17 07:43:06;;;;;;;68.70;37.55;;;;;;;4.50;96.17;99732.69;1639786;85;21554;-68
2021/11/17 07:45:33;;;;;;;70.47;38.30;;;;;;;4.52;96.17;99738.69;1640963;85;20934;-68
2021/11/17 07:48:00;;;;;;;63.83;36.33;;;;;;;4.55;96.19;99731.30;1640359;85;21040;-69
2021/11/17 07:50:27;;;;;;;93.12;59.25;;;;;;;4.57;96.18;99731.68;1642027;85;21159;-68
2021/11/17 07:53:14;;;;;;;74.70;43.92;;;;;;;4.57;96.12;99716.16;1639122;85;21151;-68
2021/11/17 07:55:44;;;;;;;69.15;37.60;;;;;;;4.56;96.11;99719.61;1662295;84;21072;-69
2021/11/17 07:58:12;;;;;;;85.10;50.28;;;;;;;4.57;96.11;99723.92;1663841;84;21238;-68
2021/11/17 08:03:38;;;;;;;71.70;38.73;;;;;;;4.58;96.08;99729.48;1662155;84;21125;-68
2021/11/17 08:06:07;;;;;;;65.65;38.25;;;;;;;4.61;96.10;99729.42;1663038;84;21111;-69
2021/11/17 08:08:37;;;;;;;68.47;38.08;;;;;;;4.61;96.06;99725.54;1662547;86;21643;-68
2021/11/17 08:11:08;;;;;;;66.37;37.63;;;;;;;4.62;96.08;99727.27;1661775;84;21105;-68
2021/11/17 08:13:37;;;;;;;70.40;37.67;;;;;;;4.65;96.14;99729.77;1662455;84;21013;-68
2021/11/17 08:16:06;;;;;;;67.62;37.80;;;;;;;4.66;96.09;99730.17;1664174;84;21484;-67
2021/11/17 08:18:38;;;;;;;72.50;38.30;;;;;;;4.69;96.11;99724.92;1665251;84;21027;-67
2021/11/17 08:21:05;;;;;;;64.77;37.30;;;;;;;4.70;95.99;99727.06;1664458;84;21001;-67
2021/11/17 08:23:33;;;;;;;64.75;37.30;;;;;;;4.74;96.12;99735.63;1664124;84;21006;-67
2021/11/17 08:26:03;;;;;;;64.87;36.95;;;;;;;4.75;96.09;99733.43;1666854;84;21017;-68
2021/11/17 08:28:31;;;;;;;66.82;38.13;;;;;;;4.76;96.03;99731.23;1664957;84;21096;-67
2021/11/17 08:30:58;;;;;;;;;;;;;;;4.76;96.08;99739.00;1664913;85;21900;-66
2021/11/17 08:33:28;;;;;;;66.95;36.68;;;;;;;4.77;96.12;99735.55;1636010;86;20201;-68
2021/11/17 08:35:57;;;;;;;67.60;35.98;;;;;;;4.79;96.17;99744.09;1665589;84;21042;-67
2021/11/17 08:38:25;;;;;;;64.58;36.20;;;;;;;4.81;96.16;99743.63;1636124;86;21061;-66
2021/11/17 08:40:58;;;;;;;64.85;36.25;;;;;;;4.84;96.25;99738.38;1614775;87;21515;-67
2021/11/17 08:43:28;;;;;;;73.97;36.58;;;;;;;4.86;96.16;99743.09;1618112;87;21605;-67
2021/11/17 08:45:55;;;;;;;68.07;35.58;;;;;;;4.88;96.17;99747.78;1593029;88;21102;-68
2021/11/17 08:48:26;;;;;;;63.50;36.17;;;;;;;4.89;96.16;99747.73;1618807;87;21603;-67
2021/11/17 08:50:56;;;;;;;68.57;36.83;;;;;;;4.90;96.08;99747.28;1614949;87;21560;-68
2021/11/17 08:53:25;;;;;;;67.40;36.40;;;;;;;4.92;96.08;99748.95;1663105;84;21100;-68
2021/11/17 08:55:55;;;;;;;65.87;37.67;;;;;;;4.93;96.02;99745.95;1661519;85;21109;-68
2021/11/17 08:58:23;;;;;;;70.40;37.03;;;;;;;4.94;95.92;99746.34;1615882;87;21550;-67
2021/11/17 09:00:50;;;;;;;69.50;37.03;;;;;;;4.94;95.92;99754.10;1592875;88;21678;-68
2021/11/17 09:03:18;;;;;;;;;;;;;;;4.94;96.06;99743.75;1664826;86;21575;-70
2021/11/17 09:05:50;;;;;;;69.53;37.85;;;;;;;5.00;96.12;99746.19;1663953;84;20196;-70
2021/11/17 09:08:23;;;;;;;62.23;36.00;;;;;;;4.97;95.94;99751.44;1614926;87;21706;-70
2021/11/17 09:10:57;;;;;;;64.97;36.70;;;;;;;4.96;95.91;99752.34;1662022;86;21069;-70
2021/11/17 09:13:25;;;;;;;63.75;37.70;;;;;;;4.99;96.05;99745.80;1619187;87;21152;-69
2021/11/17 09:16:04;;;;;;;62.67;35.60;;;;;;;5.01;96.11;99746.58;1661753;84;21098;-69
2021/11/17 09:18:34;;;;;;;66.60;37.50;;;;;;;5.06;96.16;99741.30;1662337;86;21030;-69
2021/11/17 09:21:06;;;;;;;67.10;37.53;;;;;;;5.11;96.20;99738.17;1618157;84;21290;-69
2021/11/17 09:23:34;;;;;;;67.30;37.45;;;;;;;5.13;96.13;99734.66;1664506;84;21609;-70
2021/11/17 09:26:02;;;;;;;69.25;38.45;;;;;;;5.19;96.31;99728.92;1639257;84;21013;-69
2021/11/17 09:28:33;;;;;;;65.37;35.25;;;;;;;5.23;96.22;99722.31;1617988;87;21468;-69
2021/11/17 09:31:10;;;;;;;66.62;38.13;;;;;;;5.26;96.06;99721.39;1615758;87;21207;-69
2021/11/17 09:33:46;;;;;;;67.60;37.50;;;;;;;5.28;95.96;99724.80;1612062;87;21074;-70
2021/11/17 09:36:21;;;;;;;69.17;37.87;;;;;;;5.28;95.78;99723.05;1645917;85;21084;-68
2021/11/17 09:38:51;;;;;;;77.20;39.23;;;;;;;5.28;95.88;99715.74;1639574;86;20966;-67
2021/11/17 09:41:34;;;;;;;73.35;38.08;;;;;;;5.34;95.99;99712.98;1661248;86;21025;-68
2021/11/17 09:44:36;;;;;;;70.28;37.38;;;;;;;5.36;95.99;99712.52;1619471;87;20989;-69
2021/11/17 09:47:00;;;;;;;71.75;37.90;;;;;;;5.40;95.88;99706.34;1577099;88;21124;-69
2021/11/17 09:49:32;;;;;;;69.65;36.60;;;;;;;5.39;95.76;99699.48;1604991;87;21060;-70
2021/11/17 09:52:04;;;;;;;74.03;39.08;;;;;;;5.39;95.72;99694.30;1564376;90;21089;-69
2021/11/17 09:55:11;;;;;;;71.00;38.15;;;;;;;5.37;95.74;99693.03;1572463;89;21524;-69
2021/11/17 09:57:43;;;;;;;73.57;37.98;;;;;;;5.38;95.70;99687.44;1613392;87;22748;-68
2021/11/17 10:00:27;;;;;;;75.47;40.75;;;;;;;5.38;95.87;99687.44;1614766;87;22006;-69
2021/11/17 10:03:36;;;;;;;79.05;38.92;;;;;;;5.38;95.78;99688.73;1614107;87;21127;-70
2021/11/17 10:12:00;;;;;;;79.85;40.78;;;;;;;5.40;95.72;99688.22;1600566;88;21153;-69
2021/11/17 10:14:52;;;;;;;84.28;40.38;;;;;;;5.41;95.81;99675.70;1601134;88;21325;-68
2021/11/17 10:17:43;;;;;;;80.67;40.65;;;;;;;5.41;95.79;99671.81;1606425;86;21042;-68
2021/11/17 10:20:25;;;;;;;78.78;38.38;;;;;;;5.42;95.83;99664.44;1566249;89;21056;-69
2021/11/17 10:23:15;;;;;;;82.95;40.12;;;;;;;5.45;95.83;99662.22;1631036;86;21562;-68
2021/11/17 10:26:07;;;;;;;88.70;40.45;;;;;;;5.51;95.99;99656.41;1650898;85;20995;-69
2021/11/17 10:29:01;;;;;;;79.10;39.35;;;;;;;5.51;95.70;99655.12;1592888;87;21551;-69
2021/11/17 10:31:59;;;;;;;83.30;41.48;;;;;;;5.51;95.68;99661.59;1591030;88;21026;-68
2021/11/17 10:34:39;;;;;;;82.20;42.08;;;;;;;5.53;95.67;99655.09;1649249;85;20951;-68
2021/11/17 10:37:32;;;;;;;83.42;40.95;;;;;;;5.56;95.77;99658.44;1638409;86;21042;-67
2021/11/17 10:40:12;;;;;;;86.57;43.05;;;;;;;5.60;95.74;99657.47;1613638;87;21079;-67
2021/11/17 10:42:40;;;;;;;86.45;41.10;;;;;;;5.63;95.76;99663.44;1624769;86;21996;-69
2021/11/17 10:45:23;;;;;;;86.85;43.55;;;;;;;5.65;95.84;99656.48;1623701;86;21105;-69
2021/11/17 10:47:52;;;;;;;81.70;40.80;;;;;;;5.67;95.83;99657.30;1640605;86;21034;-69
2021/11/17 10:50:33;;;;;;;84.15;41.30;;;;;;;5.61;95.51;99646.21;1642570;86;21696;-69
2021/11/17 10:53:19;;;;;;;84.83;41.55;;;;;;;5.56;95.35;99650.66;1650985;85;20988;-69
2021/11/17 10:55:51;;;;;;;86.92;42.03;;;;;;;5.55;95.46;99639.91;1648934;86;22018;-68
2021/11/17 10:58:28;;;;;;;91.82;42.85;;;;;;;5.51;95.33;99644.76;1649345;86;21054;-68
2021/11/17 11:01:03;;;;;;;84.10;40.78;;;;;;;5.46;95.36;99637.59;1635509;86;21080;-69
2021/11/17 11:03:34;;;;;;;90.67;43.10;;;;;;;5.48;95.53;99629.30;1660209;85;21101;-70
2021/11/17 11:06:25;;;;;;;89.92;43.87;;;;;;;5.50;95.54;99625.39;1661506;84;22068;-69
2021/11/17 11:09:15;;;;;;;84.32;41.15;;;;;;;5.49;95.42;99615.48;1661653;84;21594;-68
2021/11/17 11:12:02;;;;;;;84.25;41.18;;;;;;;5.53;95.65;99620.13;1636906;86;21268;-67
2021/11/17 11:14:29;;;;;;;91.75;42.70;;;;;;;5.58;95.71;99608.74;1613168;86;21317;-69
2021/11/17 11:17:32;;;;;;;87.47;41.92;;;;;;;5.58;95.47;99620.39;1635254;86;21115;-68
2021/11/17 11:20:23;;;;;;;85.80;43.85;;;;;;;5.58;95.38;99615.22;1569275;90;21205;-67
2021/11/17 11:23:09;;;;;;;92.37;44.23;;;;;;;5.58;95.50;99613.92;1562691;90;21140;-67
2021/11/17 11:25:59;;;;;;;87.62;43.87;;;;;;;5.58;95.50;99608.74;1564886;90;21105;-68
2021/11/17 11:28:55;;;;;;;82.40;43.98;;;;;;;5.54;95.21;99616.62;1565962;90;21064;-69
2021/11/17 11:36:44;;;;;;;;;;;;;;;;;;;;;
2021/11/17 11:40:25;;;;;;;82.67;42.95;;;;;;;5.54;95.55;99595.91;1781993;78;27975;-69
2021/11/17 11:43:26;;;;;;;83.17;44.73;;;;;;;5.53;95.44;99583.41;1746990;80;21040;-68
2021/11/17 11:46:08;;;;;;;94.90;45.63;;;;;;;5.53;95.25;99590.34;1741033;81;21055;-68
2021/11/17 11:49:29;;;;;;;;;;;;;;;;;;;;;
2021/11/17 11:52:40;;;;;;;;;;;;;;;;;;;;;
2021/11/17 11:55:15;;;;;;;91.40;44.18;;;;;;;5.47;95.12;99573.23;1643469;84;20993;-67
2021/11/17 11:57:52;;;;;;;83.78;43.28;;;;;;;5.49;95.15;99573.18;1643081;85;21099;-68
2021/11/17 12:00:31;;;;;;;86.08;42.60;;;;;;;5.50;95.11;99578.78;1677211;84;21060;-68
2021/11/17 12:03:16;;;;;;;85.47;45.45;;;;;;;5.51;95.04;99580.02;1667307;84;21033;-68
2021/11/17 12:06:00;;;;;;;86.42;42.38;;;;;;;5.47;94.84;99578.42;1671597;84;21134;-69
2021/11/17 12:09:07;;;;;;;86.35;43.48;;;;;;;5.47;94.99;99566.77;1672304;84;21551;-68
2021/11/17 12:12:03;;;;;;;85.55;44.05;;;;;;;5.49;94.95;99570.17;1658527;84;21064;-68
2021/11/17 12:14:59;;;;;;;86.30;43.90;;;;;;;5.48;94.98;99563.72;1671298;84;21580;-68
2021/11/17 12:18:02;;;;;;;85.20;45.52;;;;;;;5.51;95.14;99562.34;1672690;84;21106;-70
2021/11/17 12:20:34;;;;;;;83.30;43.07;;;;;;;5.50;95.03;99560.20;1580035;89;21135;-69
2021/11/17 12:23:48;;;;;;;92.22;46.10;;;;;;;5.52;95.09;99551.95;1574744;90;21179;-68
2021/11/17 12:26:23;;;;;;;88.92;46.70;;;;;;;5.57;95.24;99543.60;1603983;87;21146;-69
2021/11/17 12:29:05;;;;;;;88.55;45.43;;;;;;;5.55;95.05;99546.67;1645946;84;21181;-68
2021/11/17 12:31:37;;;;;;;73.28;41.65;;;;;;;5.53;94.96;99549.75;1655792;85;21838;-67
2021/11/17 12:34:25;;;;;;;77.20;41.85;;;;;;;5.46;94.72;99557.31;1680500;83;21139;-68
2021/11/17 12:36:58;;;;;;;;;;;;;;;5.42;94.84;99544.03;1686238;83;21211;-69
2021/11/17 12:39:50;;;;;;;79.92;41.18;;;;;;;5.41;94.81;99550.12;1672017;83;20184;-68
2021/11/17 12:42:29;;;;;;;77.85;42.00;;;;;;;5.32;94.58;99547.77;1652969;85;22001;-67
2021/11/17 12:44:58;;;;;;;85.28;42.78;;;;;;;5.27;94.80;99541.91;1630883;85;21537;-69
2021/11/17 12:47:43;;;;;;;76.05;41.37;;;;;;;5.22;94.70;99539.88;1640830;85;21092;-68
2021/11/17 12:50:18;;;;;;;73.07;39.98;;;;;;;5.19;94.76;99530.91;1672601;84;21624;-69
2021/11/17 12:53:14;;;;;;;77.58;38.80;;;;;;;5.14;94.73;99529.28;1666243;84;21221;-69
2021/11/17 12:55:55;;;;;;;69.85;38.33;;;;;;;5.12;94.74;99527.63;1668007;84;22070;-68
2021/11/17 12:58:41;;;;;;;74.20;39.73;;;;;;;5.12;94.92;99520.70;1732984;80;21098;-68
2021/11/17 13:01:17;;;;;;;68.97;38.77;;;;;;;5.10;94.83;99518.63;1743895;80;20944;-67
2021/11/17 13:03:55;;;;;;;74.58;39.53;;;;;;;5.12;94.67;99512.10;1754186;80;21607;-68
2021/11/17 13:06:49;;;;;;;64.07;37.45;;;;;;;5.15;95.06;99520.66;1746089;80;21031;-69
2021/11/17 13:09:36;;;;;;;72.95;38.75;;;;;;;5.15;94.91;99518.06;1756476;80;21091;-68
2021/11/17 13:12:14;;;;;;;72.15;37.73;;;;;;;5.18;95.00;99516.25;1731474;81;21060;-69
2021/11/17 13:14:47;;;;;;;;;;;;;;;5.19;94.91;99516.67;1731675;81;20983;-69
2021/11/17 13:17:22;;;;;;;63.87;33.75;;;;;;;5.15;94.69;99514.18;1711623;81;20092;-69
2021/11/17 13:20:00;;;;;;;61.75;32.93;;;;;;;5.13;94.69;99509.48;1736755;81;21085;-69
2021/11/17 13:23:11;;;;;;;55.92;29.80;;;;;;;5.13;94.78;99518.99;1737171;81;21081;-68
2021/11/17 13:25:49;;;;;;;58.95;30.00;;;;;;;5.10;94.67;99518.63;1730432;81;20981;-69
2021/11/17 13:28:50;;;;;;;53.20;28.92;;;;;;;5.07;94.65;99530.37;1758745;79;21005;-69
2021/11/17 13:31:27;;;;;;;53.38;28.95;;;;;;;5.05;94.65;99516.61;1756539;80;21084;-67
2021/11/17 13:35:36;;;;;;;43.08;26.55;;;;;;;5.10;94.75;99517.34;1745566;80;24588;-67
2021/11/17 13:38:15;;;;;;;47.45;27.67;;;;;;;5.05;94.73;99517.91;1721036;81;21008;-67
2021/11/17 13:41:04;;;;;;;46.73;26.90;;;;;;;5.07;94.73;99518.72;1718599;81;21845;-68
2021/11/17 13:43:32;;;;;;;43.95;26.45;;;;;;;5.08;94.65;99526.88;1682691;82;21699;-67
2021/11/17 13:46:07;;;;;;;52.43;27.32;;;;;;;5.09;94.56;99520.80;1679441;83;21059;-67
2021/11/17 13:48:38;;;;;;;48.55;27.32;;;;;;;5.11;94.65;99521.61;1680597;82;22335;-68
2021/11/17 13:51:06;;;;;;;43.15;25.12;;;;;;;5.13;94.64;99526.31;1673093;83;21043;-69
2021/11/17 13:53:35;;;;;;;50.33;26.45;;;;;;;5.13;94.55;99525.02;1672346;83;20975;-68
2021/11/17 13:56:13;;;;;;;44.42;26.85;;;;;;;5.08;94.32;99512.64;1685203;83;20976;-68
2021/11/17 13:58:40;;;;;;;42.33;24.15;;;;;;;5.03;94.32;99508.03;1657783;85;21092;-68
2021/11/17 14:01:09;;;;;;;41.15;23.25;;;;;;;4.98;94.26;99506.02;1664073;84;21010;-68
2021/11/17 14:03:39;;;;;;;45.65;25.85;;;;;;;4.94;94.22;99506.55;1662224;85;21107;-68
2021/11/17 14:06:09;;;;;;;51.60;27.40;;;;;;;4.92;94.29;99507.48;1662733;84;21109;-69
2021/11/17 14:08:37;;;;;;;98.70;24.77;;;;;;;4.90;94.38;99515.31;1650524;83;21088;-68
2021/11/17 14:11:07;;;;;;;60.45;16.17;;;;;;;4.88;94.36;99518.38;1673312;83;21062;-67
2021/11/17 14:13:35;;;;;;;45.55;14.95;;;;;;;4.82;94.12;99518.55;1677743;83;21883;-69
2021/11/17 14:16:02;;;;;;;25.70;12.65;;;;;;;4.74;94.00;99528.70;1685769;83;21053;-69
2021/11/17 14:18:29;;;;;;;45.75;14.15;;;;;;;4.69;94.07;99523.63;1664165;83;21081;-69
2021/11/17 14:20:59;;;;;;;73.62;15.58;;;;;;;4.64;94.03;99528.91;1672831;84;21051;-69
2021/11/17 14:23:26;;;;;;;53.83;13.75;;;;;;;4.59;94.04;99525.59;1678282;83;21006;-69
2021/11/17 14:25:53;;;;;;;20.50;10.10;;;;;;;4.55;93.99;99520.11;1649560;84;21142;-70
2021/11/17 14:28:30;;;;;;;34.88;12.43;;;;;;;4.48;93.93;99525.02;1677422;83;20993;-68
2021/11/17 14:31:11;;;;;;;40.78;14.30;;;;;;;4.43;93.96;99526.45;1673467;83;21204;-67
2021/11/17 14:33:44;;;;;;;13.53;8.33;;;;;;;4.40;94.00;99521.81;1672995;83;21113;-67
2021/11/17 14:36:15;;;;;;;13.72;8.75;;;;;;;4.35;93.85;99520.63;1658505;84;22235;-67
2021/11/17 14:38:44;;;;;;;11.20;7.37;;;;;;;4.29;93.85;99512.19;1624570;85;21222;-68
2021/11/17 14:45:54;;;;;;;14.95;9.13;;;;;;;4.28;94.03;99518.22;1847586;74;22712;-67
2021/11/17 14:48:23;;;;;;;14.93;9.08;;;;;;;4.19;94.03;99524.02;1831835;76;21769;-68
2021/11/17 14:50:56;;;;;;;16.48;7.28;;;;;;;4.15;94.03;99514.66;1808087;77;21081;-69
2021/11/17 14:53:23;;;;;;;9.13;6.40;;;;;;;4.12;94.00;99508.28;1739994;79;21065;-68
2021/11/17 14:55:50;;;;;;;10.00;6.75;;;;;;;4.07;93.91;99508.83;1744655;79;21567;-68
2021/11/17 14:58:17;;;;;;;10.10;6.40;;;;;;;4.02;93.96;99511.95;1748805;80;20989;-68
2021/11/17 15:00:51;;;;;;;;;;;;;;;3.97;93.99;99513.80;1744726;80;21071;-67
2021/11/17 15:03:19;;;;;;;7.95;6.83;;;;;;;3.96;94.00;99521.16;1758485;79;20717;-68
2021/11/17 15:05:50;;;;;;;8.58;5.75;;;;;;;3.92;93.87;99514.34;1757291;80;20988;-68
2021/11/17 15:08:22;;;;;;;11.83;6.80;;;;;;;3.88;93.81;99524.35;1755329;80;21014;-68
2021/11/17 15:10:54;;;;;;;9.23;5.75;;;;;;;3.86;93.88;99514.49;1780152;79;21117;-65
2021/11/17 15:13:21;;;;;;;9.20;6.00;;;;;;;3.85;93.82;99519.27;1772828;78;21519;-68
2021/11/17 15:15:49;;;;;;;8.25;5.60;;;;;;;3.81;93.79;99518.05;1745085;78;21909;-69
2021/11/17 15:18:21;;;;;;;8.50;5.85;;;;;;;3.80;93.77;99521.48;1777188;79;21002;-69
2021/11/17 15:20:53;;;;;;;8.23;6.17;;;;;;;3.80;93.72;99517.61;1764675;79;21028;-67